KBYS

Bicycle Lake AAF Airport

Fort Irwin/Barstow, California, USA
METAR KBYS 241955Z AUTO 10007G14KT 10SM CLR 08/M18 A3024 RMK AO2 SLP268 WND DATA ESTMD T00841181
Observed Flight Rules
Feb-24 @ 19:55 UTC (18 minutes ago) Visual Flight Rules
Wind Visibility Clouds
100° at 7 knots
 Gusting to 14 knots
10 miles
  • Clear skies
Temperatures Readings
Current 8°C / 46°F
Dewpoint -18°C / -0°F
Humidity 14%
Altimeter 30.24" Hg
Pressure 1026.8 hPa
Elevation 716
METAR KBYS 241955Z AUTO 10007G14KT 10SM CLR 08/M18 A3024 RMK AO2 SLP268 WND DATA ESTMD T00841181
Observed Flight Rules
Feb-24 @ 19:55 UTC
(18 minutes ago)
VFR
Wind Visibility
100° at 7 knots
 Gusting to 14 knots
10 miles
Clouds
  • Clear skies
Temperature Dewpoint
8°C / 46°F -18°C / -0°F
Humidity Altimeter Pressure
14% 30.24" Hg 1026.8 hPa